Time;durP1;ratioP1;P1;durP2;ratioP2;P2;SDS_P1;SDS_P2;PMS_P1;PMS_P2;Temp;Humidity;BMP_temperature;BMP_pressure;BME280_temperature;BME280_humidity;BME280_pressure;Samples;Min_cycle;Max_cycle;Signal;HPM_P1;HPM_P2
2022/06/17 00:00:06;;;;;;;7.10;5.57;;;21.80;99.90;;;;;;5044454;28;20461;-70
2022/06/17 00:02:32;;;;;;;7.60;6.80;;;21.50;6.20;;;;;;5048628;28;20171;-69
2022/06/17 00:04:57;;;;;;;7.00;6.40;;;21.10;7.70;;;;;;5048978;28;20406;-70
2022/06/17 00:07:23;;;;;;;7.83;7.03;;;20.90;9.60;;;;;;5048705;28;20596;-70
2022/06/17 00:09:48;;;;;;;7.20;6.60;;;20.90;11.20;;;;;;5049058;28;20253;-69
2022/06/17 00:12:14;;;;;;;8.47;6.33;;;20.90;13.00;;;;;;5048888;28;20198;-70
2022/06/17 00:17:25;;;;;;;7.90;7.10;;;20.80;15.00;;;;;;5048720;28;20185;-68
2022/06/17 00:19:50;;;;;;;15.03;7.17;;;21.00;16.50;;;;;;5048688;28;20405;-68
2022/06/17 00:22:16;;;;;;;17.67;6.43;;;21.10;17.40;;;;;;5048291;28;20178;-68
2022/06/17 00:24:42;;;;;;;8.87;6.60;;;21.20;18.20;;;;;;5049381;28;20255;-69
2022/06/17 00:27:10;;;;;;;7.97;6.50;;;21.20;18.70;;;;;;5036377;28;20505;-68
2022/06/17 00:29:36;;;;;;;13.47;7.00;;;21.20;19.40;;;;;;5028622;28;20164;-68
2022/06/17 00:32:02;;;;;;;8.97;6.67;;;21.20;20.10;;;;;;5028665;28;20421;-69
2022/06/17 00:34:28;;;;;;;7.23;6.53;;;21.20;20.00;;;;;;5029194;28;20410;-69
2022/06/17 00:37:00;;;;;;;9.07;6.00;;;21.30;21.40;;;;;;5028179;28;20418;-70
2022/06/17 00:39:30;;;;;;;6.17;5.57;;;21.30;20.80;;;;;;5027893;28;20180;-68
2022/06/17 00:42:03;;;;;;;7.83;6.23;;;21.30;20.60;;;;;;5026477;28;20480;-69
2022/06/17 00:45:13;;;;;;;6.50;5.90;;;21.30;21.30;;;;;;5029006;28;20768;-68
2022/06/17 00:47:53;;;;;;;7.03;5.73;;;21.20;21.90;;;;;;5024745;28;20521;-68
2022/06/17 00:50:30;;;;;;;6.40;5.17;;;21.20;21.80;;;;;;5028436;28;20496;-68
2022/06/17 00:53:14;;;;;;;6.63;5.63;;;21.20;20.90;;;;;;5028289;28;20477;-68
2022/06/17 00:55:52;;;;;;;4.90;4.50;;;21.10;20.70;;;;;;5026907;28;20417;-69
2022/06/17 00:58:29;;;;;;;21.70;7.00;;;21.10;20.70;;;;;;5029625;28;20756;-68
2022/06/17 01:00:58;;;;;;;5.70;5.20;;;21.10;20.70;;;;;;5048721;28;20472;-68
2022/06/17 01:03:33;;;;;;;7.93;5.30;;;21.10;21.10;;;;;;5048079;28;20941;-68
2022/06/17 01:06:08;;;;;;;5.10;4.60;;;21.10;21.00;;;;;;5048544;28;20504;-69
2022/06/17 01:11:29;;;;;;;6.27;5.73;;;21.10;21.00;;;;;;5048545;28;20467;-67
2022/06/17 01:13:55;;;;;;;11.87;5.20;;;21.10;20.70;;;;;;5048873;28;20406;-67
2022/06/17 01:16:29;;;;;;;7.67;5.13;;;20.90;20.80;;;;;;5048338;28;20493;-68
2022/06/17 01:18:56;;;;;;;8.53;4.67;;;20.90;21.00;;;;;;5044234;28;20417;-68
2022/06/17 01:21:39;;;;;;;7.20;5.10;;;20.90;21.40;;;;;;5028118;28;20422;-67
2022/06/17 01:24:08;;;;;;;7.57;5.20;;;20.90;21.70;;;;;;5028596;28;20497;-69
2022/06/17 01:26:35;;;;;;;6.60;5.40;;;20.90;21.90;;;;;;5026352;28;20527;-69
2022/06/17 01:29:00;;;;;;;7.00;5.73;;;20.80;22.40;;;;;;5027582;28;20425;-69
2022/06/17 01:31:27;;;;;;;14.07;5.67;;;20.60;22.10;;;;;;5028044;28;20487;-69
2022/06/17 01:33:53;;;;;;;8.93;6.27;;;20.50;23.40;;;;;;5027808;28;20179;-68
2022/06/17 01:36:26;;;;;;;5.97;5.47;;;20.50;23.50;;;;;;5028260;28;20789;-69
2022/06/17 01:38:55;;;;;;;6.30;5.70;;;20.60;24.10;;;;;;5026987;28;20883;-68
2022/06/17 01:41:25;;;;;;;11.23;5.63;;;20.50;24.60;;;;;;5028298;28;20452;-68
2022/06/17 01:43:53;;;;;;;7.97;5.10;;;20.50;24.60;;;;;;5028146;28;20457;-68
2022/06/17 01:46:23;;;;;;;7.07;5.70;;;20.50;25.00;;;;;;5028042;28;20421;-69
2022/06/17 01:48:59;;;;;;;6.10;5.50;;;20.50;25.00;;;;;;5026846;28;20413;-69
2022/06/17 01:51:28;;;;;;;5.97;5.37;;;20.50;24.80;;;;;;5027948;28;20440;-69
2022/06/17 01:53:58;;;;;;;6.40;5.27;;;20.40;24.60;;;;;;5027617;28;20510;-69
2022/06/17 01:56:28;;;;;;;7.83;5.30;;;20.40;24.60;;;;;;5027737;28;20410;-69
2022/06/17 01:59:15;;;;;;;5.70;5.20;;;20.30;25.00;;;;;;5033135;28;20417;-69
2022/06/17 02:01:47;;;;;;;7.00;4.47;;;20.30;25.10;;;;;;5047345;28;20754;-68
2022/06/17 02:04:19;;;;;;;6.33;5.80;;;20.30;25.40;;;;;;5048156;28;20837;-69
2022/06/17 02:07:03;;;;;;;12.00;5.40;;;20.20;25.50;;;;;;5047160;28;20402;-67
2022/06/17 02:09:29;;;;;;;9.10;4.43;;;20.00;26.60;;;;;;5048043;28;20796;-70
2022/06/17 02:11:57;;;;;;;5.93;5.33;;;19.90;28.80;;;;;;5045597;28;20461;-67
2022/06/17 02:14:24;;;;;;;4.27;3.87;;;19.90;32.00;;;;;;5048352;28;20198;-68
2022/06/17 02:16:54;;;;;;;7.03;5.70;;;19.90;49.60;;;;;;5046925;28;20504;-69
2022/06/17 02:19:23;;;;;;;6.67;6.07;;;;;;;;;;5047225;28;20741;-68
2022/06/17 02:21:52;;;;;;;7.13;5.47;;;;;;;;;;5046631;28;20473;-70
2022/06/17 02:24:19;;;;;;;5.73;5.23;;;;;;;;;;5047938;28;20441;-67
2022/06/17 02:26:47;;;;;;;9.83;5.57;;;;;;;;;;5039223;28;20563;-68
2022/06/17 02:29:14;;;;;;;9.40;5.57;;;;;;;;;;5030471;28;20490;-68
2022/06/17 02:31:41;;;;;;;7.60;5.57;;;;;;;;;;5030655;28;20444;-67
2022/06/17 02:34:08;;;;;;;5.83;5.33;;;;;;;;;;5031430;28;20460;-70
2022/06/17 02:36:37;;;;;;;11.90;4.60;;;;;;;;;;5030057;28;20411;-69
2022/06/17 02:39:04;;;;;;;9.43;5.10;;;;;;;;;;5030188;28;20406;-67
2022/06/17 02:41:30;;;;;;;7.33;4.80;;;;;;;;;;5030374;28;20830;-67
2022/06/17 02:43:58;;;;;;;13.63;6.80;;;;;;;;;;5030585;28;20504;-68
2022/06/17 02:46:24;;;;;;;33.50;7.07;;;;;;;;;;5030761;28;20482;-69
2022/06/17 02:48:58;;;;;;;9.20;5.53;;;;;;;;;;5029774;28;20466;-68
2022/06/17 02:51:26;;;;;;;8.07;5.20;;;;;;;;;;5030917;28;20484;-69
2022/06/17 02:53:52;;;;;;;6.33;5.20;;;;;;;;;;5030419;28;20506;-68
2022/06/17 02:56:20;;;;;;;16.73;5.50;;;;;;;;;;5030600;28;20967;-69
2022/06/17 02:58:52;;;;;;;9.60;6.03;;;;;;;;;;5034910;28;20421;-70
2022/06/17 03:01:25;;;;;;;64.33;9.60;;;;;;;;;;5050146;28;20854;-69
2022/06/17 03:03:52;;;;;;;17.60;6.07;;;;;;;;;;5049445;28;20536;-69
2022/06/17 03:06:20;;;;;;;13.37;6.17;;;;;;;;;;5049756;28;20456;-69
2022/06/17 03:08:49;;;;;;;8.33;5.40;;;;;;;;;;5048201;28;20484;-67
2022/06/17 03:11:15;;;;;;;6.90;6.20;;;;;;;;;;5049967;28;20522;-68
2022/06/17 03:13:43;;;;;;;12.70;6.10;;;;;;;;;;5048251;28;20956;-67
2022/06/17 03:16:11;;;;;;;19.03;6.10;;;;;;;;;;5049999;28;20420;-67
2022/06/17 03:18:37;;;;;;;14.33;6.27;;;;;;;;;;5048751;28;20436;-68
2022/06/17 03:21:05;;;;;;;12.43;5.53;;;;;;;;;;5050027;28;20428;-68
2022/06/17 03:23:37;;;;;;;17.33;6.83;;;;;;;;;;5049633;28;20529;-68
2022/06/17 03:26:12;;;;;;;38.23;7.67;;;;;;;;;;5046828;28;20398;-68
2022/06/17 03:28:43;;;;;;;25.30;7.10;;;;;;;;;;5029064;28;20390;-67
2022/06/17 03:31:11;;;;;;;19.13;5.90;;;;;;;;;;5030539;28;20422;-68
2022/06/17 03:33:39;;;;;;;20.93;7.27;;;;;;;;;;5029937;28;20815;-68
2022/06/17 03:36:08;;;;;;;18.80;6.03;;;;;;;;;;5032438;28;20417;-68
2022/06/17 03:38:38;;;;;;;23.70;6.73;;;;;;;;;;5030697;28;20494;-68
2022/06/17 03:41:11;;;;;;;8.20;4.83;;;;;;;;;;5032146;28;20452;-68
2022/06/17 03:43:44;;;;;;;7.00;5.87;;;;;;;;;;5031551;28;20489;-68
2022/06/17 03:46:11;;;;;;;10.50;6.07;;;;;;;;;;5031918;28;20704;-67
2022/06/17 03:48:43;;;;;;;10.87;5.17;;;;;;;;;;5029772;28;20449;-68
2022/06/17 03:51:17;;;;;;;26.20;7.20;;;;;;;;;;5029056;28;20853;-67
2022/06/17 03:53:44;;;;;;;9.50;5.73;;;;;;;;;;5028281;28;20402;-67
2022/06/17 03:56:21;;;;;;;12.27;5.90;;;;;;;;;;5028507;28;20480;-67
2022/06/17 03:58:48;;;;;;;16.63;5.40;;;;;;;;;;5033063;28;20433;-66
2022/06/17 04:01:33;;;;;;;11.17;5.70;;;;;;;;;;5048807;28;20424;-66
2022/06/17 04:04:01;;;;;;;23.27;6.80;;;;;;;;;;5048381;28;20518;-68
2022/06/17 04:06:31;;;;;;;28.37;6.53;;;;;;;;;;5048786;28;20895;-67
2022/06/17 04:09:03;;;;;;;14.03;5.90;;;;;;;;;;5047515;28;20404;-67
2022/06/17 04:11:32;;;;;;;17.37;5.50;;;;;;;;;;5047947;28;20437;-68
2022/06/17 04:13:59;;;;;;;16.03;5.50;;;;;;;;;;5048900;28;20412;-67
2022/06/17 04:16:46;;;;;;;9.93;5.70;;;;;;;;;;5048831;28;20500;-68
2022/06/17 04:19:16;;;;;;;7.07;4.63;;;;;;;;;;5041965;28;20413;-67
2022/06/17 04:21:43;;;;;;;5.00;4.60;;;;;;;;;;5028408;28;20421;-68
2022/06/17 04:24:13;;;;;;;5.50;4.30;;;;;;;;;;5028708;28;20781;-68
2022/06/17 04:26:40;;;;;;;5.10;4.47;;;;;;;;;;5027705;28;21008;-68
2022/06/17 04:29:10;;;;;;;10.43;4.83;;;;;;;;;;5028024;28;20402;-68
2022/06/17 04:31:36;;;;;;;13.07;5.90;;;;;;;;;;5028007;28;20415;-67
2022/06/17 04:34:14;;;;;;;9.60;5.23;;;;;;;;;;5028232;28;20398;-68
2022/06/17 04:37:02;;;;;;;8.57;4.60;;;;;;;;;;5026108;28;20418;-68
2022/06/17 04:39:31;;;;;;;31.33;7.60;;;;;;;;;;5028022;28;20420;-67
2022/06/17 04:41:59;;;;;;;20.80;7.53;;;;;;;;;;5028265;28;20742;-68
2022/06/17 04:44:25;;;;;;;11.77;5.60;;;;;;;;;;5028846;28;20462;-67
2022/06/17 04:46:54;;;;;;;18.30;5.03;;;;;;;;;;5028471;28;20403;-68
2022/06/17 04:49:22;;;;;;;13.50;5.70;;;;;;;;;;5028092;28;20456;-68
2022/06/17 04:51:49;;;;;;;22.00;7.03;;;;;;;;;;5028110;28;20507;-68
2022/06/17 04:54:15;;;;;;;21.77;6.10;;;;;;;;;;5028595;28;20501;-68
2022/06/17 04:56:45;;;;;;;14.80;5.73;;;;;;;;;;5027032;28;20430;-67
2022/06/17 04:59:29;;;;;;;11.77;5.10;;;;;;;;;;5035396;28;20413;-68
2022/06/17 05:01:55;;;;;;;6.80;4.80;;;;;;;;;;5026482;28;20564;-70
2022/06/17 05:04:23;;;;;;;15.97;6.93;;;;;;;;;;5007562;28;20975;-68
2022/06/17 05:06:48;;;;;;;10.37;5.40;;;;;;;;;;5007229;28;20406;-68
2022/06/17 05:09:14;;;;;;;10.80;5.60;;;;;;;;;;5007149;28;20407;-70
2022/06/17 05:11:42;;;;;;;5.40;4.90;;;;;;;;;;5007109;28;20856;-68
2022/06/17 05:14:14;;;;;;;8.07;5.00;;;;;;;;;;5007944;28;20671;-69
2022/06/17 05:16:40;;;;;;;11.27;5.77;;;;;;;;;;5006920;28;20702;-69
2022/06/17 05:19:06;;;;;;;6.30;3.80;;;;;;;;;;5006510;28;20418;-70
2022/06/17 05:21:32;;;;;;;17.40;5.30;;;;;;;;;;5007697;28;20423;-70
2022/06/17 05:23:58;;;;;;;16.00;6.53;;;;;;;;;;5006094;28;20454;-69
2022/06/17 05:26:25;;;;;;;12.17;5.10;;;;;;;;;;5012728;28;20461;-69
2022/06/17 05:28:52;;;;;;;16.10;6.50;;;;;;;;;;5026391;28;20545;-69
2022/06/17 05:31:20;;;;;;;13.53;6.23;;;;;;;;;;5027300;28;20526;-68
2022/06/17 05:33:49;;;;;;;9.47;5.57;;;;;;;;;;5026849;28;20410;-68
2022/06/17 05:36:15;;;;;;;10.23;5.90;;;;;;;;;;5027369;28;20496;-69
2022/06/17 05:38:42;;;;;;;11.03;5.73;;;;;;;;;;5026070;28;20402;-69
2022/06/17 05:41:10;;;;;;;8.40;4.83;;;;;;;;;;5027036;28;20965;-69
2022/06/17 05:43:36;;;;;;;9.00;5.20;;;;;;;;;;5027025;28;20461;-69
2022/06/17 05:46:02;;;;;;;12.07;5.23;;;23.20;16.80;;;;;;5027205;28;20414;-69
2022/06/17 05:48:27;;;;;;;11.10;4.97;;;23.20;25.00;;;;;;5026058;28;20465;-68
2022/06/17 05:50:53;;;;;;;18.20;4.97;;;23.20;24.50;;;;;;5027138;28;20203;-68
2022/06/17 05:53:19;;;;;;;10.57;5.00;;;23.30;24.50;;;;;;5026521;28;20521;-68
2022/06/17 05:55:44;;;;;;;18.33;6.23;;;23.50;24.80;;;;;;5026878;28;20262;-69
2022/06/17 05:58:10;;;;;;;20.47;5.63;;;23.70;24.60;;;;;;5026528;28;20184;-68
2022/06/17 06:00:36;;;;;;;7.50;4.93;;;23.90;24.40;;;;;;5047061;28;20286;-68
2022/06/17 06:03:05;;;;;;;5.87;4.20;;;24.00;23.60;;;;;;5048524;28;20218;-68
2022/06/17 06:05:33;;;;;;;9.67;4.80;;;23.80;22.60;;;;;;5050208;28;20179;-68
2022/06/17 06:07:59;;;;;;;14.77;4.87;;;23.30;21.10;;;;;;5049284;28;20483;-69
2022/06/17 06:10:25;;;;;;;7.03;4.77;;;23.40;21.20;;;;;;5049556;28;20823;-68
2022/06/17 06:12:54;;;;;;;4.33;3.93;;;23.30;21.00;;;;;;5050159;28;20237;-68
2022/06/17 06:15:21;;;;;;;7.67;5.00;;;22.90;20.10;;;;;;5049952;28;20501;-68
2022/06/17 06:17:48;;;;;;;6.90;5.60;;;23.10;20.20;;;;;;5049458;28;20467;-68
2022/06/17 06:20:15;;;;;;;8.30;4.40;;;23.00;20.30;;;;;;5050156;28;20472;-68
2022/06/17 06:22:40;;;;;;;8.33;5.20;;;23.40;20.70;;;;;;5048683;28;20416;-67
2022/06/17 06:25:09;;;;;;;11.33;5.63;;;23.70;20.20;;;;;;5050439;28;20413;-68
2022/06/17 06:27:35;;;;;;;6.40;4.33;;;23.80;19.50;;;;;;5032237;28;20270;-68
2022/06/17 06:30:01;;;;;;;7.20;4.70;;;23.20;17.90;;;;;;5028608;28;20513;-70
2022/06/17 06:32:26;;;;;;;18.10;5.67;;;22.90;17.50;;;;;;5029345;28;20645;-68
2022/06/17 06:34:52;;;;;;;9.57;4.40;;;23.20;22.80;;;;;;5030310;28;20581;-67
2022/06/17 06:37:18;;;;;;;11.70;4.37;;;23.30;18.90;;;;;;5029015;28;20289;-67
2022/06/17 06:39:44;;;;;;;6.60;4.57;;;22.60;17.20;;;;;;5029453;28;20886;-68
2022/06/17 06:42:10;;;;;;;5.13;4.40;;;22.60;90.40;;;;;;5029267;28;20179;-67
2022/06/17 06:44:36;;;;;;;7.90;4.80;;;22.70;18.30;;;;;;5030198;28;20199;-68
2022/06/17 06:47:02;;;;;;;7.40;4.80;;;23.20;18.80;;;;;;5029143;28;20203;-69
2022/06/17 06:49:27;;;;;;;6.47;4.83;;;23.90;20.00;;;;;;5030137;28;20179;-68
2022/06/17 06:51:53;;;;;;;5.43;4.93;;;23.80;19.20;;;;;;5029586;28;20805;-67
2022/06/17 06:54:18;;;;;;;4.30;3.93;;;23.90;18.90;;;;;;5029856;28;20528;-68
2022/06/17 06:56:44;;;;;;;10.50;5.13;;;23.90;39.70;;;;;;5028799;28;20324;-67
2022/06/17 06:59:11;;;;;;;5.53;5.13;;;24.10;99.90;;;;;;5037307;28;20273;-68
2022/06/17 07:01:38;;;;;;;6.03;5.53;;;24.10;99.90;;;;;;5035787;28;20239;-67
2022/06/17 07:04:04;;;;;;;10.93;5.77;;;23.50;99.90;;;;;;5010118;28;20574;-68
2022/06/17 07:06:31;;;;;;;18.53;5.50;;;24.40;99.90;;;;;;5009739;28;20426;-68
2022/06/17 07:08:57;;;;;;;6.83;5.80;;;24.90;99.90;;;;;;5008842;28;20557;-68
2022/06/17 07:11:23;;;;;;;12.70;5.23;;;;;;;;;;5009748;28;20928;-68
2022/06/17 07:13:48;;;;;;;6.37;4.40;;;24.40;5.90;;;;;;5009831;28;20213;-68
2022/06/17 07:16:14;;;;;;;6.07;5.00;;;23.70;13.80;;;;;;5009661;28;20482;-68
2022/06/17 07:18:40;;;;;;;6.30;5.50;;;22.70;11.50;;;;;;5009540;28;20180;-69
2022/06/17 07:21:09;;;;;;;8.40;5.40;;;23.50;13.50;;;;;;5029403;28;20560;-69
2022/06/17 07:23:38;;;;;;;5.00;4.50;;;23.90;13.90;;;;;;5008058;28;20204;-68
2022/06/17 07:26:09;;;;;;;9.33;5.53;;;23.20;12.20;;;;;;5012331;28;20414;-69
2022/06/17 07:28:35;;;;;;;6.47;4.77;;;23.30;12.70;;;;;;5028711;28;20414;-68
2022/06/17 07:31:01;;;;;;;7.53;5.23;;;23.70;13.60;;;;;;5029349;28;20907;-68
2022/06/17 07:33:30;;;;;;;5.40;4.90;;;23.60;13.30;;;;;;5029593;28;20179;-68
2022/06/17 07:35:59;;;;;;;5.83;4.67;;;24.30;14.60;;;;;;5028939;28;20493;-68
2022/06/17 07:41:15;;;;;;;7.10;4.90;;;24.80;14.30;;;;;;5029434;28;20557;-70
2022/06/17 07:43:41;;;;;;;8.23;4.93;;;24.60;12.70;;;;;;5028868;28;20458;-70
2022/06/17 07:46:07;;;;;;;13.23;5.77;;;24.70;12.60;;;;;;5028985;28;20410;-70
2022/06/17 07:48:33;;;;;;;8.70;5.70;;;24.80;11.60;;;;;;5027250;28;20736;-69
2022/06/17 07:51:00;;;;;;;6.27;4.30;;;23.70;10.20;;;;;;5028611;28;20199;-68
2022/06/17 07:53:30;;;;;;;5.77;5.27;;;24.40;12.40;;;;;;5028510;28;20420;-69
2022/06/17 07:55:59;;;;;;;18.63;5.87;;;25.30;12.70;;;;;;5028379;28;20414;-70
2022/06/17 07:58:25;;;;;;;9.10;5.80;;;25.80;12.90;;;;;;5030348;28;20948;-69
2022/06/17 08:00:51;;;;;;;8.77;4.87;;;26.10;12.50;;;;;;5048738;28;20456;-69
2022/06/17 08:03:18;;;;;;;7.10;4.80;;;25.80;10.90;;;;;;5048476;28;20480;-69
2022/06/17 08:05:47;;;;;;;8.20;5.20;;;26.30;10.70;;;;;;5048010;28;20167;-69
2022/06/17 08:08:21;;;;;;;5.40;4.70;;;26.40;10.30;;;;;;5047522;28;20466;-71
2022/06/17 08:10:50;;;;;;;14.80;5.37;;;26.20;10.00;;;;;;5048875;28;20952;-69
2022/06/17 08:13:16;;;;;;;9.40;5.07;;;26.50;10.40;;;;;;5049054;28;20516;-70
2022/06/17 08:15:42;;;;;;;7.40;4.50;;;25.60;7.50;;;;;;5049626;28;20488;-70
2022/06/17 08:18:09;;;;;;;6.00;4.63;;;24.80;6.70;;;;;;5048348;28;20816;-68
2022/06/17 08:20:35;;;;;;;7.23;4.60;;;25.00;7.20;;;;;;5050390;28;20592;-69
2022/06/17 08:23:03;;;;;;;7.73;5.23;;;25.40;8.00;;;;;;5047318;28;20439;-69
2022/06/17 08:25:30;;;;;;;4.80;4.40;;;25.70;7.50;;;;;;5047185;28;20491;-69
2022/06/17 08:27:57;;;;;;;8.80;4.73;;;25.60;6.80;;;;;;5029405;28;20414;-69
2022/06/17 08:30:29;;;;;;;4.67;4.27;;;25.70;6.50;;;;;;5027414;28;20484;-69
2022/06/17 08:32:55;;;;;;;10.33;5.40;;;25.70;6.50;;;;;;5027816;28;20404;-69
2022/06/17 08:35:35;;;;;;;9.40;5.00;;;26.20;7.20;;;;;;5028263;28;21198;-68
2022/06/17 08:38:07;;;;;;;6.90;5.20;;;26.60;6.70;;;;;;5026931;28;20406;-68
2022/06/17 08:40:39;;;;;;;14.77;5.27;;;26.00;4.80;;;;;;5026497;28;20508;-68
2022/06/17 08:43:32;;;;;;;5.43;4.77;;;26.50;5.50;;;;;;5027830;28;20457;-68
2022/06/17 08:46:10;;;;;;;5.97;5.37;;;25.60;4.00;;;;;;5028022;28;20520;-68
2022/06/17 08:49:20;;;;;;;5.00;4.60;;;25.70;3.90;;;;;;5026626;28;20416;-68
2022/06/17 08:52:10;;;;;;;6.33;4.10;;;25.90;4.00;;;;;;5018694;28;20453;-69
2022/06/17 08:54:57;;;;;;;5.90;4.77;;;26.00;4.20;;;;;;5027694;28;20402;-67
2022/06/17 08:57:39;;;;;;;9.80;5.50;;;26.00;3.90;;;;;;5026337;28;20455;-67
2022/06/17 09:00:07;;;;;;;9.33;5.13;;;26.10;3.90;;;;;;5043212;28;20491;-69
2022/06/17 09:02:59;;;;;;;10.13;5.10;;;26.50;4.00;;;;;;5046778;28;20412;-68
2022/06/17 09:05:37;;;;;;;13.93;4.90;;;26.70;3.40;;;;;;5019565;28;20443;-68
2022/06/17 09:08:40;;;;;;;8.80;4.80;;;27.00;3.10;;;;;;5046935;28;20968;-68
2022/06/17 09:11:35;;;;;;;9.77;4.33;;;27.30;1.70;;;;;;5047575;28;20428;-69
2022/06/17 09:14:20;;;;;;;4.60;3.73;;;27.30;1.00;;;;;;5048513;28;20910;-68
2022/06/17 09:16:57;;;;;;;7.33;4.27;;;27.30;1.00;;;;;;5047671;28;20429;-68
2022/06/17 09:19:31;;;;;;;4.10;3.70;;;27.00;1.00;;;;;;5047950;28;20385;-67
2022/06/17 09:22:08;;;;;;;4.73;4.10;;;26.20;1.00;;;;;;5047528;28;20474;-68
2022/06/17 09:24:39;;;;;;;5.83;3.87;;;26.00;1.00;;;;;;5048076;28;20922;-69
2022/06/17 09:27:08;;;;;;;9.83;4.13;;;25.90;1.00;;;;;;5035330;28;20406;-68
2022/06/17 09:29:58;;;;;;;5.30;3.57;;;26.30;1.00;;;;;;5027268;28;20867;-68
2022/06/17 09:32:32;;;;;;;7.53;4.20;;;26.80;1.00;;;;;;5027251;28;20425;-68
2022/06/17 09:35:21;;;;;;;3.90;3.33;;;26.80;1.00;;;;;;5028024;28;20944;-68
2022/06/17 09:38:16;;;;;;;3.60;3.27;;;26.40;1.00;;;;;;5000384;28;20482;-67
2022/06/17 09:40:53;;;;;;;3.37;2.80;;;26.80;1.00;;;;;;5031572;28;20449;-68
2022/06/17 09:43:30;;;;;;;3.80;3.20;;;26.90;1.00;;;;;;5032156;28;20977;-69
2022/06/17 09:45:58;;;;;;;7.00;3.50;;;26.40;1.00;;;;;;5032254;28;20394;-69
2022/06/17 09:48:40;;;;;;;7.87;4.13;;;27.00;1.00;;;;;;5030876;28;20398;-69
2022/06/17 09:51:18;;;;;;;5.27;3.00;;;27.50;1.00;;;;;;5031993;28;20938;-67
2022/06/17 09:54:00;;;;;;;4.23;2.80;;;27.50;1.00;;;;;;5031475;28;20401;-68
2022/06/17 09:56:41;;;;;;;5.10;2.83;;;27.40;1.00;;;;;;5031707;28;20413;-68
2022/06/17 09:59:17;;;;;;;11.60;3.60;;;27.30;1.00;;;;;;5038870;28;20412;-68
2022/06/17 10:01:44;;;;;;;6.50;3.77;;;27.00;1.00;;;;;;5051436;28;20436;-68
2022/06/17 10:04:12;;;;;;;6.30;3.17;;;27.10;1.00;;;;;;5051690;28;20445;-70
2022/06/17 10:06:53;;;;;;;4.63;3.70;;;27.00;1.00;;;;;;5052855;28;20435;-68
2022/06/17 10:09:54;;;;;;;3.83;2.43;;;27.30;1.00;;;;;;5051368;28;20916;-69
2022/06/17 10:12:34;;;;;;;3.90;2.70;;;27.30;1.00;;;;;;5022068;28;20419;-68
2022/06/17 10:15:16;;;;;;;4.40;2.70;;;27.00;1.00;;;;;;5053870;28;20452;-69
2022/06/17 10:20:42;;;;;;;3.77;3.37;;;27.00;1.00;;;;;;5034928;28;20440;-70
2022/06/17 10:23:41;;;;;;;4.70;3.13;;;27.40;1.00;;;;;;5030778;28;20436;-70
2022/06/17 10:26:12;;;;;;;7.90;3.50;;;27.80;1.00;;;;;;5031183;28;20418;-69
2022/06/17 10:28:56;;;;;;;11.43;3.30;;;27.90;1.00;;;;;;5029190;28;20497;-69
2022/06/17 10:31:42;;;;;;;3.60;2.20;;;28.00;1.00;;;;;;5030416;28;20444;-68
2022/06/17 10:34:21;;;;;;;6.93;2.13;;;27.70;1.00;;;;;;5030799;28;20477;-69
2022/06/17 10:36:50;;;;;;;2.27;2.07;;;27.00;1.00;;;;;;5030119;28;20405;-69
2022/06/17 10:39:19;;;;;;;3.27;2.33;;;27.30;1.00;;;;;;5030165;28;20426;-69
2022/06/17 10:41:46;;;;;;;5.03;3.23;;;27.70;1.00;;;;;;5029460;28;20508;-68
2022/06/17 10:44:15;;;;;;;19.13;3.97;;;27.80;1.00;;;;;;5030361;28;20537;-68
2022/06/17 10:46:48;;;;;;;6.10;2.90;;;27.90;1.00;;;;;;5029554;28;20397;-69
2022/06/17 10:49:34;;;;;;;2.33;2.00;;;28.00;1.00;;;;;;5029095;28;20448;-68
2022/06/17 10:52:05;;;;;;;3.50;2.00;;;27.50;1.00;;;;;;5029358;28;20475;-67
2022/06/17 10:54:34;;;;;;;3.50;2.43;;;27.30;1.00;;;;;;5030667;28;20549;-67
2022/06/17 10:57:05;;;;;;;3.67;2.73;;;27.10;1.00;;;;;;5010143;28;20414;-69
2022/06/17 10:59:36;;;;;;;2.83;1.93;;;27.40;1.00;;;;;;5033483;28;20435;-68
2022/06/17 11:02:03;;;;;;;6.07;2.13;;;27.80;1.00;;;;;;5049622;28;20413;-68
2022/06/17 11:04:35;;;;;;;4.10;2.40;;;27.80;1.00;;;;;;5049803;28;20500;-68
2022/06/17 11:07:06;;;;;;;2.70;2.00;;;27.70;1.00;;;;;;5049950;28;20396;-68
2022/06/17 11:09:37;;;;;;;2.37;1.50;;;27.30;1.00;;;;;;5050659;28;20807;-68
2022/06/17 11:12:14;;;;;;;2.23;1.80;;;27.10;1.00;;;;;;5049505;28;20401;-68
2022/06/17 11:14:45;;;;;;;2.10;1.90;;;27.10;1.00;;;;;;5049962;28;20417;-68
2022/06/17 11:17:14;;;;;;;6.90;2.30;;;27.10;1.00;;;;;;5049430;28;20405;-68
2022/06/17 11:19:41;;;;;;;4.37;2.20;;;26.50;1.00;;;;;;5049903;28;20440;-69
2022/06/17 11:22:19;;;;;;;1.63;1.53;;;26.40;1.00;;;;;;5049187;28;20417;-68
2022/06/17 11:24:55;;;;;;;6.43;2.47;;;26.40;1.00;;;;;;5050025;28;20451;-69
2022/06/17 11:27:36;;;;;;;3.60;2.17;;;26.50;1.00;;;;;;5035164;28;20440;-69
2022/06/17 11:30:23;;;;;;;3.13;2.23;;;26.70;1.00;;;;;;5029792;28;20456;-70
2022/06/17 11:32:50;;;;;;;2.30;1.80;;;26.70;1.00;;;;;;5030005;28;20412;-69
2022/06/17 11:35:36;;;;;;;2.57;2.03;;;26.50;1.00;;;;;;5029898;28;20492;-69
2022/06/17 11:38:05;;;;;;;2.37;2.03;;;26.60;1.00;;;;;;5028627;28;20410;-69
2022/06/17 11:40:33;;;;;;;2.13;1.80;;;27.00;1.00;;;;;;5028287;28;20480;-69
2022/06/17 11:43:03;;;;;;;3.63;1.90;;;27.10;1.00;;;;;;5029633;28;20406;-70
2022/06/17 11:45:32;;;;;;;2.53;1.70;;;27.00;1.00;;;;;;5029878;28;20409;-68
2022/06/17 11:48:14;;;;;;;8.23;2.07;;;27.10;1.00;;;;;;5028207;28;20456;-70
2022/06/17 11:50:42;;;;;;;7.10;1.80;;;27.00;1.00;;;;;;5028944;28;20445;-68
2022/06/17 11:53:14;;;;;;;2.53;1.57;;;27.00;1.00;;;;;;5026808;28;20410;-70
2022/06/17 11:55:44;;;;;;;2.57;1.90;;;27.30;1.00;;;;;;5028321;28;20422;-68
2022/06/17 11:58:12;;;;;;;3.27;1.90;;;27.40;1.00;;;;;;5027850;28;20410;-68
2022/06/17 12:00:51;;;;;;;3.43;2.00;;;27.40;1.00;;;;;;5048769;28;20427;-69
2022/06/17 12:03:39;;;;;;;4.30;2.20;;;27.00;1.00;;;;;;5048291;28;20462;-68
2022/06/17 12:06:08;;;;;;;4.90;1.83;;;26.80;1.00;;;;;;5048670;28;20518;-68
2022/06/17 12:08:36;;;;;;;12.70;2.60;;;26.70;1.00;;;;;;5047363;28;20454;-69
2022/06/17 12:11:08;;;;;;;3.37;1.60;;;26.80;1.00;;;;;;5048049;28;20421;-68
2022/06/17 12:13:44;;;;;;;8.57;3.07;;;26.60;1.00;;;;;;5048564;28;20537;-68
2022/06/17 12:16:44;;;;;;;3.77;2.20;;;26.90;1.00;;;;;;5048628;28;20847;-69
2022/06/17 12:19:16;;;;;;;2.70;1.70;;;27.40;1.00;;;;;;5047805;28;20785;-68
2022/06/17 12:22:13;;;;;;;4.47;2.80;;;27.70;1.00;;;;;;5048765;28;20424;-70
2022/06/17 12:24:57;;;;;;;4.73;1.97;;;27.80;1.00;;;;;;5048791;28;20624;-68
2022/06/17 12:27:30;;;;;;;3.30;1.80;;;27.70;1.00;;;;;;5033845;28;20808;-69
2022/06/17 12:30:28;;;;;;;2.53;1.60;;;27.60;1.00;;;;;;5028515;28;20428;-68
2022/06/17 12:33:10;;;;;;;4.60;2.33;;;27.20;1.00;;;;;;5026294;28;20929;-68
2022/06/17 12:35:43;;;;;;;3.30;1.43;;;27.10;1.00;;;;;;5028747;28;20405;-69
2022/06/17 12:38:15;;;;;;;4.00;1.80;;;27.10;1.00;;;;;;5027659;28;20418;-68
2022/06/17 12:40:46;;;;;;;2.10;1.90;;;27.10;1.00;;;;;;5027818;28;20453;-69
2022/06/17 12:43:23;;;;;;;2.60;1.53;;;27.10;1.00;;;;;;5028074;28;20406;-69
2022/06/17 12:45:55;;;;;;;6.33;2.10;;;27.30;1.00;;;;;;5028652;28;21190;-70
2022/06/17 12:48:43;;;;;;;5.93;2.00;;;27.50;1.00;;;;;;5027152;28;20402;-69
2022/06/17 12:54:50;;;;;;;2.57;2.10;;;27.60;1.00;;;;;;5028438;28;20443;-70
2022/06/17 12:57:47;;;;;;;3.53;1.90;;;27.80;1.00;;;;;;5007495;28;20525;-68
2022/06/17 13:00:21;;;;;;;4.30;1.63;;;27.80;1.00;;;;;;5023483;28;20506;-69
2022/06/17 13:03:01;;;;;;;1.83;1.63;;;28.00;1.00;;;;;;5047659;28;20416;-69
2022/06/17 13:05:41;;;;;;;7.43;2.27;;;28.10;1.00;;;;;;5047958;28;20405;-68
2022/06/17 13:08:42;;;;;;;2.53;1.70;;;28.30;1.00;;;;;;5046940;28;20404;-67
2022/06/17 13:11:18;;;;;;;2.83;1.73;;;28.10;1.00;;;;;;5046983;28;20409;-68
2022/06/17 13:14:12;;;;;;;3.97;1.60;;;27.70;1.00;;;;;;5047421;28;20456;-68
2022/06/17 13:16:48;;;;;;;3.80;1.90;;;27.90;1.00;;;;;;5047454;28;20443;-68
2022/06/17 13:19:19;;;;;;;12.37;3.03;;;28.20;1.00;;;;;;5040766;28;20501;-68
2022/06/17 13:21:52;;;;;;;3.33;1.80;;;28.50;1.00;;;;;;5026557;28;20444;-67
2022/06/17 13:24:35;;;;;;;2.37;1.50;;;28.50;1.00;;;;;;5027109;28;20487;-68
2022/06/17 13:27:07;;;;;;;3.90;2.10;;;28.00;1.00;;;;;;5026402;28;20416;-68
2022/06/17 13:29:35;;;;;;;1.93;1.47;;;28.00;1.00;;;;;;5027350;28;20398;-68
2022/06/17 13:32:18;;;;;;;7.47;1.50;;;28.00;1.00;;;;;;5026788;28;20874;-68
2022/06/17 13:34:55;;;;;;;5.30;1.70;;;28.20;1.00;;;;;;5027895;28;20398;-69
2022/06/17 13:37:34;;;;;;;2.60;1.50;;;28.40;1.00;;;;;;5026774;28;20461;-69
2022/06/17 13:40:17;;;;;;;1.70;1.20;;;28.30;1.00;;;;;;5027065;28;20437;-69
2022/06/17 13:42:43;;;;;;;1.93;1.40;;;28.00;1.00;;;;;;5026651;28;20468;-69
2022/06/17 13:45:44;;;;;;;3.60;1.60;;;27.80;1.00;;;;;;5027092;28;20596;-68
2022/06/17 13:48:13;;;;;;;3.03;1.97;;;28.00;1.00;;;;;;5025965;28;20406;-69
2022/06/17 13:51:19;;;;;;;2.57;1.83;;;28.40;1.00;;;;;;5027553;28;20542;-70
2022/06/17 13:54:13;;;;;;;1.70;1.30;;;28.60;1.00;;;;;;5018287;28;20421;-69
2022/06/17 13:57:06;;;;;;;1.97;1.30;;;28.20;1.00;;;;;;5027064;28;20825;-69